sensor_id;sensor_type;location;lat;lon;timestamp;pressure;altitude;pressure_sealevel;temperature;humidity
65784;BME280;52532;53.358;-1.488;2022-11-15T00:00:56;99180.99;;;14.63;57.87
65784;BME280;52532;53.358;-1.488;2022-11-15T00:03:59;99179.32;;;14.56;57.62
65784;BME280;52532;53.358;-1.488;2022-11-15T00:07:02;99180.51;;;13.87;60.67
65784;BME280;52532;53.358;-1.488;2022-11-15T00:10:05;99173.94;;;14.15;58.47
65784;BME280;52532;53.358;-1.488;2022-11-15T00:13:10;99168.81;;;15.51;55.33
65784;BME280;52532;53.358;-1.488;2022-11-15T00:16:14;99163.76;;;14.50;55.78
65784;BME280;52532;53.358;-1.488;2022-11-15T00:19:17;99158.94;;;15.21;54.43
65784;BME280;52532;53.358;-1.488;2022-11-15T00:22:20;99156.77;;;14.22;57.24
65784;BME280;52532;53.358;-1.488;2022-11-15T00:25:22;99155.22;;;13.95;57.67
65784;BME280;52532;53.358;-1.488;2022-11-15T00:28:25;99151.27;;;14.39;56.61
65784;BME280;52532;53.358;-1.488;2022-11-15T00:31:28;99155.50;;;12.17;59.38
65784;BME280;52532;53.358;-1.488;2022-11-15T00:34:31;99149.72;;;14.40;56.94
65784;BME280;52532;53.358;-1.488;2022-11-15T00:37:34;99141.92;;;14.90;55.63
65784;BME280;52532;53.358;-1.488;2022-11-15T00:40:37;99134.69;;;13.18;59.25
65784;BME280;52532;53.358;-1.488;2022-11-15T00:43:40;99130.52;;;13.65;56.23
65784;BME280;52532;53.358;-1.488;2022-11-15T00:46:45;99122.11;;;13.11;57.41
65784;BME280;52532;53.358;-1.488;2022-11-15T00:49:48;99115.21;;;13.49;57.06
65784;BME280;52532;53.358;-1.488;2022-11-15T00:52:51;99114.33;;;14.37;54.01
65784;BME280;52532;53.358;-1.488;2022-11-15T00:55:54;99103.36;;;13.78;55.92
65784;BME280;52532;53.358;-1.488;2022-11-15T00:58:57;99096.31;;;12.92;57.18
65784;BME280;52532;53.358;-1.488;2022-11-15T01:01:59;99096.55;;;14.65;53.85
65784;BME280;52532;53.358;-1.488;2022-11-15T01:05:03;99086.23;;;14.66;52.58
65784;BME280;52532;53.358;-1.488;2022-11-15T01:08:17;99072.38;;;13.52;54.51
65784;BME280;52532;53.358;-1.488;2022-11-15T01:11:21;99065.47;;;13.83;54.89
65784;BME280;52532;53.358;-1.488;2022-11-15T01:14:23;99062.23;;;14.64;51.58
65784;BME280;52532;53.358;-1.488;2022-11-15T01:17:27;99063.07;;;14.23;52.29
65784;BME280;52532;53.358;-1.488;2022-11-15T01:20:30;99060.62;;;14.62;51.73
65784;BME280;52532;53.358;-1.488;2022-11-15T01:23:32;99063.56;;;14.22;52.21
65784;BME280;52532;53.358;-1.488;2022-11-15T01:26:36;99064.57;;;14.03;51.98
65784;BME280;52532;53.358;-1.488;2022-11-15T01:29:38;99058.08;;;13.55;52.55
65784;BME280;52532;53.358;-1.488;2022-11-15T01:32:41;99055.71;;;11.42;56.03
65784;BME280;52532;53.358;-1.488;2022-11-15T01:35:44;99048.64;;;13.99;52.13
65784;BME280;52532;53.358;-1.488;2022-11-15T01:38:52;99043.45;;;13.07;53.71
65784;BME280;52532;53.358;-1.488;2022-11-15T01:41:55;99039.09;;;13.48;51.65
65784;BME280;52532;53.358;-1.488;2022-11-15T01:44:58;99032.23;;;15.48;48.78
65784;BME280;52532;53.358;-1.488;2022-11-15T01:48:01;99026.89;;;12.83;53.86
65784;BME280;52532;53.358;-1.488;2022-11-15T01:51:07;99020.82;;;12.13;55.01
65784;BME280;52532;53.358;-1.488;2022-11-15T01:54:15;99018.25;;;13.75;53.16
65784;BME280;52532;53.358;-1.488;2022-11-15T01:57:19;99014.74;;;15.08;49.40
65784;BME280;52532;53.358;-1.488;2022-11-15T02:00:23;99003.47;;;15.01;49.66
65784;BME280;52532;53.358;-1.488;2022-11-15T02:03:31;98998.68;;;15.57;50.04
65784;BME280;52532;53.358;-1.488;2022-11-15T02:06:37;98993.27;;;14.42;51.54
65784;BME280;52532;53.358;-1.488;2022-11-15T02:09:40;98987.26;;;14.53;50.95
65784;BME280;52532;53.358;-1.488;2022-11-15T02:12:44;98986.14;;;14.93;51.41
65784;BME280;52532;53.358;-1.488;2022-11-15T02:15:55;98981.49;;;12.08;56.44
65784;BME280;52532;53.358;-1.488;2022-11-15T02:19:07;98969.71;;;14.71;52.08
65784;BME280;52532;53.358;-1.488;2022-11-15T02:22:24;98965.39;;;14.88;50.72
65784;BME280;52532;53.358;-1.488;2022-11-15T02:25:46;98949.53;;;14.23;51.68
65784;BME280;52532;53.358;-1.488;2022-11-15T02:29:02;98949.03;;;15.35;49.67
65784;BME280;52532;53.358;-1.488;2022-11-15T02:32:10;98945.07;;;14.87;50.05
65784;BME280;52532;53.358;-1.488;2022-11-15T02:35:25;98941.20;;;15.48;49.65
65784;BME280;52532;53.358;-1.488;2022-11-15T02:38:40;98926.77;;;14.20;50.75
65784;BME280;52532;53.358;-1.488;2022-11-15T02:41:47;98921.87;;;15.57;48.82
65784;BME280;52532;53.358;-1.488;2022-11-15T02:44:56;98911.97;;;13.92;51.86
65784;BME280;52532;53.358;-1.488;2022-11-15T02:48:01;98906.78;;;14.25;51.59
65784;BME280;52532;53.358;-1.488;2022-11-15T02:51:06;98903.38;;;14.90;51.06
65784;BME280;52532;53.358;-1.488;2022-11-15T02:54:12;98897.76;;;14.39;51.80
65784;BME280;52532;53.358;-1.488;2022-11-15T02:57:18;98892.37;;;14.55;50.99
65784;BME280;52532;53.358;-1.488;2022-11-15T03:00:26;98890.42;;;14.54;50.87
65784;BME280;52532;53.358;-1.488;2022-11-15T03:03:44;98887.17;;;15.44;51.13
65784;BME280;52532;53.358;-1.488;2022-11-15T03:06:57;98879.79;;;14.70;52.06
65784;BME280;52532;53.358;-1.488;2022-11-15T03:10:07;98865.49;;;13.06;55.72
65784;BME280;52532;53.358;-1.488;2022-11-15T03:13:20;98857.98;;;14.92;52.58
65784;BME280;52532;53.358;-1.488;2022-11-15T03:16:27;98851.08;;;15.00;52.65
65784;BME280;52532;53.358;-1.488;2022-11-15T03:19:35;98843.16;;;14.37;53.72
65784;BME280;52532;53.358;-1.488;2022-11-15T03:22:44;98838.98;;;13.89;54.90
65784;BME280;52532;53.358;-1.488;2022-11-15T03:25:50;98838.12;;;13.27;56.55
65784;BME280;52532;53.358;-1.488;2022-11-15T03:28:57;98831.42;;;11.23;60.07
65784;BME280;52532;53.358;-1.488;2022-11-15T03:32:06;98831.78;;;13.25;57.40
65784;BME280;52532;53.358;-1.488;2022-11-15T03:35:12;98823.39;;;11.59;60.93
65784;BME280;52532;53.358;-1.488;2022-11-15T03:38:22;98813.15;;;13.63;56.53
65784;BME280;52532;53.358;-1.488;2022-11-15T03:41:31;98810.49;;;12.28;59.62
65784;BME280;52532;53.358;-1.488;2022-11-15T03:44:43;98808.15;;;11.92;62.44
65784;BME280;52532;53.358;-1.488;2022-11-15T03:47:53;98799.03;;;10.93;65.32
65784;BME280;52532;53.358;-1.488;2022-11-15T03:50:57;98795.79;;;12.32;60.53
65784;BME280;52532;53.358;-1.488;2022-11-15T03:54:02;98798.09;;;12.52;61.25
65784;BME280;52532;53.358;-1.488;2022-11-15T03:57:06;98795.02;;;12.32;60.77
65784;BME280;52532;53.358;-1.488;2022-11-15T04:00:10;98794.23;;;10.86;65.12
65784;BME280;52532;53.358;-1.488;2022-11-15T04:03:13;98790.67;;;11.78;63.30
65784;BME280;52532;53.358;-1.488;2022-11-15T04:06:16;98792.39;;;10.97;65.20
65784;BME280;52532;53.358;-1.488;2022-11-15T04:09:19;98791.62;;;10.77;66.06
65784;BME280;52532;53.358;-1.488;2022-11-15T04:12:22;98790.02;;;10.19;67.63
65784;BME280;52532;53.358;-1.488;2022-11-15T04:15:33;98781.65;;;13.65;60.00
65784;BME280;52532;53.358;-1.488;2022-11-15T04:18:36;98775.94;;;13.32;60.98
65784;BME280;52532;53.358;-1.488;2022-11-15T04:21:39;98777.67;;;9.33;69.37
65784;BME280;52532;53.358;-1.488;2022-11-15T04:26:52;98767.02;;;11.50;64.93
65784;BME280;52532;53.358;-1.488;2022-11-15T04:29:54;98758.12;;;12.41;65.89
65784;BME280;52532;53.358;-1.488;2022-11-15T04:32:59;98754.42;;;11.74;63.89
65784;BME280;52532;53.358;-1.488;2022-11-15T04:36:02;98743.11;;;11.45;65.20
65784;BME280;52532;53.358;-1.488;2022-11-15T04:41:17;98740.09;;;13.56;60.16
65784;BME280;52532;53.358;-1.488;2022-11-15T04:44:20;98740.58;;;10.64;65.50
65784;BME280;52532;53.358;-1.488;2022-11-15T04:47:22;98738.48;;;12.00;61.95
65784;BME280;52532;53.358;-1.488;2022-11-15T04:50:25;98730.61;;;11.68;63.59
65784;BME280;52532;53.358;-1.488;2022-11-15T04:53:28;98721.21;;;11.46;63.96
65784;BME280;52532;53.358;-1.488;2022-11-15T04:56:31;98720.08;;;12.88;62.85
65784;BME280;52532;53.358;-1.488;2022-11-15T04:59:34;98723.84;;;12.25;61.85
65784;BME280;52532;53.358;-1.488;2022-11-15T05:02:37;98727.94;;;11.86;64.32
65784;BME280;52532;53.358;-1.488;2022-11-15T05:07:49;98707.64;;;10.71;70.39
65784;BME280;52532;53.358;-1.488;2022-11-15T05:10:52;98707.82;;;9.16;75.79
65784;BME280;52532;53.358;-1.488;2022-11-15T05:13:55;98694.01;;;11.02;70.85
65784;BME280;52532;53.358;-1.488;2022-11-15T05:16:58;98701.65;;;9.27;75.34
65784;BME280;52532;53.358;-1.488;2022-11-15T05:20:01;98689.53;;;11.59;70.76
65784;BME280;52532;53.358;-1.488;2022-11-15T05:23:04;98684.39;;;11.83;69.80
65784;BME280;52532;53.358;-1.488;2022-11-15T05:26:08;98676.13;;;12.38;67.22
65784;BME280;52532;53.358;-1.488;2022-11-15T05:29:11;98673.68;;;12.53;67.76
65784;BME280;52532;53.358;-1.488;2022-11-15T05:32:14;98665.31;;;11.26;69.28
65784;BME280;52532;53.358;-1.488;2022-11-15T05:35:21;98657.93;;;12.19;68.04
65784;BME280;52532;53.358;-1.488;2022-11-15T05:38:28;98657.26;;;10.40;74.32
65784;BME280;52532;53.358;-1.488;2022-11-15T05:41:33;98647.15;;;12.53;67.87
65784;BME280;52532;53.358;-1.488;2022-11-15T05:44:40;98641.75;;;11.78;68.09
65784;BME280;52532;53.358;-1.488;2022-11-15T05:47:44;98637.56;;;10.38;73.82
65784;BME280;52532;53.358;-1.488;2022-11-15T05:50:48;98639.26;;;11.66;71.84
65784;BME280;52532;53.358;-1.488;2022-11-15T05:53:52;98630.65;;;11.34;71.38
65784;BME280;52532;53.358;-1.488;2022-11-15T05:56:56;98624.29;;;13.09;67.98
65784;BME280;52532;53.358;-1.488;2022-11-15T05:59:59;98625.42;;;11.08;69.60
65784;BME280;52532;53.358;-1.488;2022-11-15T06:03:01;98612.06;;;13.30;66.87
65784;BME280;52532;53.358;-1.488;2022-11-15T06:06:05;98603.23;;;12.15;69.90
65784;BME280;52532;53.358;-1.488;2022-11-15T06:09:08;98601.27;;;11.45;70.39
65784;BME280;52532;53.358;-1.488;2022-11-15T06:12:11;98593.45;;;11.08;73.89
65784;BME280;52532;53.358;-1.488;2022-11-15T06:15:14;98593.80;;;13.29;67.45
65784;BME280;52532;53.358;-1.488;2022-11-15T06:18:16;98588.22;;;12.84;67.32
65784;BME280;52532;53.358;-1.488;2022-11-15T06:21:19;98574.48;;;9.58;78.28
65784;BME280;52532;53.358;-1.488;2022-11-15T06:24:22;98573.83;;;12.21;69.89
65784;BME280;52532;53.358;-1.488;2022-11-15T06:27:25;98567.84;;;12.99;69.23
65784;BME280;52532;53.358;-1.488;2022-11-15T06:30:28;98565.59;;;11.83;73.09
65784;BME280;52532;53.358;-1.488;2022-11-15T06:33:31;98556.36;;;7.72;89.32
65784;BME280;52532;53.358;-1.488;2022-11-15T06:36:35;98556.33;;;11.97;76.24
65784;BME280;52532;53.358;-1.488;2022-11-15T06:39:38;98547.42;;;11.70;72.41
65784;BME280;52532;53.358;-1.488;2022-11-15T06:42:41;98540.57;;;11.38;73.23
65784;BME280;52532;53.358;-1.488;2022-11-15T06:45:44;98534.78;;;12.30;71.89
65784;BME280;52532;53.358;-1.488;2022-11-15T06:48:47;98535.14;;;11.23;74.95
65784;BME280;52532;53.358;-1.488;2022-11-15T06:51:51;98534.10;;;12.46;72.69
65784;BME280;52532;53.358;-1.488;2022-11-15T06:54:54;98529.59;;;11.21;73.74
65784;BME280;52532;53.358;-1.488;2022-11-15T06:57:57;98521.41;;;12.29;71.76
65784;BME280;52532;53.358;-1.488;2022-11-15T07:01:00;98514.72;;;9.93;81.39
65784;BME280;52532;53.358;-1.488;2022-11-15T07:04:04;98510.38;;;10.74;76.93
65784;BME280;52532;53.358;-1.488;2022-11-15T07:07:06;98494.19;;;9.56;81.71
65784;BME280;52532;53.358;-1.488;2022-11-15T07:10:09;98497.34;;;10.75;77.83
65784;BME280;52532;53.358;-1.488;2022-11-15T07:13:12;98486.75;;;11.21;77.21
65784;BME280;52532;53.358;-1.488;2022-11-15T07:16:15;98484.43;;;11.77;76.05
65784;BME280;52532;53.358;-1.488;2022-11-15T07:19:18;98478.57;;;9.23;83.32
65784;BME280;52532;53.358;-1.488;2022-11-15T07:22:21;98478.46;;;9.82;81.77
65784;BME280;52532;53.358;-1.488;2022-11-15T07:25:24;98474.81;;;9.28;83.33
65784;BME280;52532;53.358;-1.488;2022-11-15T07:28:28;98469.54;;;10.40;83.94
65784;BME280;52532;53.358;-1.488;2022-11-15T07:31:30;98469.73;;;11.18;77.53
65784;BME280;52532;53.358;-1.488;2022-11-15T07:34:33;98470.23;;;10.92;77.79
65784;BME280;52532;53.358;-1.488;2022-11-15T07:37:36;98463.59;;;12.18;74.68
65784;BME280;52532;53.358;-1.488;2022-11-15T07:40:39;98460.61;;;9.60;82.65
65784;BME280;52532;53.358;-1.488;2022-11-15T07:43:42;98456.65;;;11.50;78.60
65784;BME280;52532;53.358;-1.488;2022-11-15T07:46:45;98453.82;;;10.65;81.07
65784;BME280;52532;53.358;-1.488;2022-11-15T07:49:48;98449.97;;;11.26;80.71
65784;BME280;52532;53.358;-1.488;2022-11-15T07:52:54;98454.06;;;8.85;84.66
65784;BME280;52532;53.358;-1.488;2022-11-15T07:55:57;98448.60;;;10.02;86.30
65784;BME280;52532;53.358;-1.488;2022-11-15T07:59:00;98451.28;;;10.78;79.68
65784;BME280;52532;53.358;-1.488;2022-11-15T08:02:03;98440.69;;;10.80;81.45
65784;BME280;52532;53.358;-1.488;2022-11-15T08:05:06;98440.90;;;10.37;84.91
65784;BME280;52532;53.358;-1.488;2022-11-15T08:08:14;98438.17;;;7.97;91.73
65784;BME280;52532;53.358;-1.488;2022-11-15T08:11:17;98430.21;;;9.00;92.04
65784;BME280;52532;53.358;-1.488;2022-11-15T08:14:20;98428.69;;;11.18;85.28
65784;BME280;52532;53.358;-1.488;2022-11-15T08:17:24;98426.99;;;10.38;83.38
65784;BME280;52532;53.358;-1.488;2022-11-15T08:20:28;98421.77;;;11.62;80.74
65784;BME280;52532;53.358;-1.488;2022-11-15T08:23:32;98416.00;;;9.22;88.61
65784;BME280;52532;53.358;-1.488;2022-11-15T08:26:35;98416.82;;;10.99;84.83
65784;BME280;52532;53.358;-1.488;2022-11-15T08:29:38;98412.39;;;11.69;82.05
65784;BME280;52532;53.358;-1.488;2022-11-15T08:32:41;98408.66;;;11.67;79.76
65784;BME280;52532;53.358;-1.488;2022-11-15T08:35:44;98408.59;;;10.47;85.92
65784;BME280;52532;53.358;-1.488;2022-11-15T08:38:47;98408.09;;;10.10;86.52
65784;BME280;52532;53.358;-1.488;2022-11-15T08:41:50;98398.38;;;10.06;86.89
65784;BME280;52532;53.358;-1.488;2022-11-15T08:44:53;98395.64;;;10.37;89.07
65784;BME280;52532;53.358;-1.488;2022-11-15T08:47:56;98384.86;;;10.53;88.72
65784;BME280;52532;53.358;-1.488;2022-11-15T08:50:59;98381.12;;;9.72;87.50
65784;BME280;52532;53.358;-1.488;2022-11-15T08:54:07;98370.12;;;10.55;86.25
65784;BME280;52532;53.358;-1.488;2022-11-15T08:57:10;98367.69;;;11.86;84.34
65784;BME280;52532;53.358;-1.488;2022-11-15T09:00:14;98356.95;;;11.83;83.86
65784;BME280;52532;53.358;-1.488;2022-11-15T09:03:27;98354.10;;;11.52;82.98
65784;BME280;52532;53.358;-1.488;2022-11-15T09:06:31;98350.90;;;11.55;82.28
65784;BME280;52532;53.358;-1.488;2022-11-15T09:09:33;98348.60;;;9.18;94.37
65784;BME280;52532;53.358;-1.488;2022-11-15T09:12:37;98338.83;;;10.79;86.51
65784;BME280;52532;53.358;-1.488;2022-11-15T09:15:40;98332.60;;;9.54;89.21
65784;BME280;52532;53.358;-1.488;2022-11-15T09:18:43;98324.03;;;9.59;90.51
65784;BME280;52532;53.358;-1.488;2022-11-15T09:21:45;98324.25;;;10.23;87.03
65784;BME280;52532;53.358;-1.488;2022-11-15T09:24:48;98314.06;;;10.99;85.47
65784;BME280;52532;53.358;-1.488;2022-11-15T09:27:51;98304.08;;;10.07;90.22
65784;BME280;52532;53.358;-1.488;2022-11-15T09:30:56;98294.63;;;10.47;87.05
65784;BME280;52532;53.358;-1.488;2022-11-15T09:34:00;98293.72;;;11.05;86.08
65784;BME280;52532;53.358;-1.488;2022-11-15T09:37:03;98291.06;;;10.13;86.91
65784;BME280;52532;53.358;-1.488;2022-11-15T09:40:13;98285.49;;;12.53;80.43
65784;BME280;52532;53.358;-1.488;2022-11-15T09:43:29;98283.58;;;12.08;82.23
65784;BME280;52532;53.358;-1.488;2022-11-15T09:46:42;98277.32;;;10.27;85.37
65784;BME280;52532;53.358;-1.488;2022-11-15T09:49:51;98268.43;;;11.03;82.84
65784;BME280;52532;53.358;-1.488;2022-11-15T09:52:55;98258.48;;;10.19;86.69
65784;BME280;52532;53.358;-1.488;2022-11-15T09:55:59;98251.36;;;10.18;92.29
65784;BME280;52532;53.358;-1.488;2022-11-15T09:59:18;98245.11;;;11.20;91.17
65784;BME280;52532;53.358;-1.488;2022-11-15T10:02:38;98235.57;;;10.17;93.09
65784;BME280;52532;53.358;-1.488;2022-11-15T10:05:46;98229.36;;;11.34;85.84
65784;BME280;52532;53.358;-1.488;2022-11-15T10:08:55;98221.10;;;9.76;94.48
65784;BME280;52532;53.358;-1.488;2022-11-15T10:12:00;98218.29;;;8.80;94.51
65784;BME280;52532;53.358;-1.488;2022-11-15T10:15:05;98220.33;;;10.94;89.05
65784;BME280;52532;53.358;-1.488;2022-11-15T10:18:16;98207.68;;;10.93;89.03
65784;BME280;52532;53.358;-1.488;2022-11-15T10:21:24;98196.45;;;12.01;84.84
65784;BME280;52532;53.358;-1.488;2022-11-15T10:24:39;98192.71;;;11.04;92.66
65784;BME280;52532;53.358;-1.488;2022-11-15T10:27:46;98185.17;;;11.48;90.20
65784;BME280;52532;53.358;-1.488;2022-11-15T10:30:54;98179.55;;;11.19;89.69
65784;BME280;52532;53.358;-1.488;2022-11-15T10:34:10;98179.55;;;9.02;99.34
65784;BME280;52532;53.358;-1.488;2022-11-15T10:37:27;98167.38;;;10.39;95.91
65784;BME280;52532;53.358;-1.488;2022-11-15T10:40:30;98159.53;;;11.40;88.85
65784;BME280;52532;53.358;-1.488;2022-11-15T10:43:33;98152.11;;;10.52;94.89
65784;BME280;52532;53.358;-1.488;2022-11-15T10:46:38;98141.94;;;9.25;100.00
65784;BME280;52532;53.358;-1.488;2022-11-15T10:49:53;98128.47;;;10.87;93.14
65784;BME280;52532;53.358;-1.488;2022-11-15T10:52:57;98120.05;;;9.49;97.33
65784;BME280;52532;53.358;-1.488;2022-11-15T10:56:05;98117.17;;;11.03;94.13
65784;BME280;52532;53.358;-1.488;2022-11-15T10:59:26;98110.24;;;10.54;95.04
65784;BME280;52532;53.358;-1.488;2022-11-15T11:02:34;98107.83;;;11.22;91.80
65784;BME280;52532;53.358;-1.488;2022-11-15T11:05:39;98098.33;;;11.73;90.12
65784;BME280;52532;53.358;-1.488;2022-11-15T11:08:55;98113.97;;;10.97;94.89
65784;BME280;52532;53.358;-1.488;2022-11-15T11:11:59;98105.26;;;10.99;93.01
65784;BME280;52532;53.358;-1.488;2022-11-15T11:15:10;98094.35;;;11.84;89.45
65784;BME280;52532;53.358;-1.488;2022-11-15T11:18:21;98080.97;;;11.58;91.00
65784;BME280;52532;53.358;-1.488;2022-11-15T11:21:33;98072.62;;;10.82;95.18
65784;BME280;52532;53.358;-1.488;2022-11-15T11:24:43;98058.34;;;12.39;88.12
65784;BME280;52532;53.358;-1.488;2022-11-15T11:27:58;98052.94;;;11.97;87.34
65784;BME280;52532;53.358;-1.488;2022-11-15T11:31:13;98044.68;;;11.64;88.98
65784;BME280;52532;53.358;-1.488;2022-11-15T11:34:30;98041.19;;;10.28;96.07
65784;BME280;52532;53.358;-1.488;2022-11-15T11:37:42;98039.65;;;12.18;91.75
65784;BME280;52532;53.358;-1.488;2022-11-15T11:40:59;98030.85;;;12.07;90.05
65784;BME280;52532;53.358;-1.488;2022-11-15T11:44:12;98028.31;;;9.94;96.43
65784;BME280;52532;53.358;-1.488;2022-11-15T11:47:21;98016.04;;;9.87;100.00
65784;BME280;52532;53.358;-1.488;2022-11-15T11:50:27;98014.28;;;10.33;99.13
65784;BME280;52532;53.358;-1.488;2022-11-15T11:53:35;98004.12;;;10.80;97.97
65784;BME280;52532;53.358;-1.488;2022-11-15T11:56:44;97994.07;;;11.69;93.61
65784;BME280;52532;53.358;-1.488;2022-11-15T11:59:52;97991.49;;;11.03;93.56
65784;BME280;52532;53.358;-1.488;2022-11-15T12:03:07;97989.43;;;11.52;93.80
65784;BME280;52532;53.358;-1.488;2022-11-15T12:06:20;97991.21;;;12.44;90.42
65784;BME280;52532;53.358;-1.488;2022-11-15T12:09:32;97991.70;;;11.81;93.77
65784;BME280;52532;53.358;-1.488;2022-11-15T12:12:47;97993.91;;;11.79;93.11
65784;BME280;52532;53.358;-1.488;2022-11-15T12:15:56;97996.88;;;10.53;98.85
65784;BME280;52532;53.358;-1.488;2022-11-15T12:19:03;98000.31;;;11.19;93.60
65784;BME280;52532;53.358;-1.488;2022-11-15T12:22:12;97988.94;;;11.28;93.32
65784;BME280;52532;53.358;-1.488;2022-11-15T12:25:22;97986.42;;;12.75;89.12
65784;BME280;52532;53.358;-1.488;2022-11-15T12:28:35;97984.52;;;12.23;91.83
65784;BME280;52532;53.358;-1.488;2022-11-15T12:31:44;97980.02;;;11.15;93.68
65784;BME280;52532;53.358;-1.488;2022-11-15T12:34:49;97975.74;;;11.78;92.18
65784;BME280;52532;53.358;-1.488;2022-11-15T12:37:53;97974.97;;;12.13;92.64
65784;BME280;52532;53.358;-1.488;2022-11-15T12:41:16;97967.61;;;12.05;91.26
65784;BME280;52532;53.358;-1.488;2022-11-15T12:44:57;97969.85;;;12.25;88.05
65784;BME280;52532;53.358;-1.488;2022-11-15T12:49:09;97963.08;;;11.67;89.97
65784;BME280;52532;53.358;-1.488;2022-11-15T12:52:14;97949.31;;;12.15;92.57
65784;BME280;52532;53.358;-1.488;2022-11-15T12:55:34;97939.43;;;12.62;94.39
65784;BME280;52532;53.358;-1.488;2022-11-15T12:58:43;97929.64;;;12.56;90.78
65784;BME280;52532;53.358;-1.488;2022-11-15T13:02:17;97933.74;;;12.23;90.42
65784;BME280;52532;53.358;-1.488;2022-11-15T13:05:59;97927.79;;;13.08;87.80
65784;BME280;52532;53.358;-1.488;2022-11-15T13:10:31;97925.86;;;12.89;89.16
65784;BME280;52532;53.358;-1.488;2022-11-15T13:13:43;97932.34;;;12.22;90.45
65784;BME280;52532;53.358;-1.488;2022-11-15T13:16:49;97916.97;;;11.08;95.87
65784;BME280;52532;53.358;-1.488;2022-11-15T13:20:11;97915.12;;;11.45;91.89
65784;BME280;52532;53.358;-1.488;2022-11-15T13:23:21;97907.80;;;13.28;85.14
65784;BME280;52532;53.358;-1.488;2022-11-15T13:26:25;97900.26;;;12.80;86.16
65784;BME280;52532;53.358;-1.488;2022-11-15T13:29:28;97891.71;;;14.14;83.29
65784;BME280;52532;53.358;-1.488;2022-11-15T13:32:31;97890.61;;;13.37;83.90
65784;BME280;52532;53.358;-1.488;2022-11-15T13:35:38;97879.51;;;13.31;86.28
65784;BME280;52532;53.358;-1.488;2022-11-15T13:38:42;97879.71;;;15.16;78.64
65784;BME280;52532;53.358;-1.488;2022-11-15T13:41:48;97880.97;;;14.80;75.87
65784;BME280;52532;53.358;-1.488;2022-11-15T13:44:56;97877.60;;;15.61;75.88
65784;BME280;52532;53.358;-1.488;2022-11-15T13:48:03;97874.11;;;12.63;86.78
65784;BME280;52532;53.358;-1.488;2022-11-15T13:51:10;97868.36;;;14.30;79.59
65784;BME280;52532;53.358;-1.488;2022-11-15T13:54:20;97871.01;;;15.16;74.85
65784;BME280;52532;53.358;-1.488;2022-11-15T13:57:28;97865.20;;;17.52;67.30
65784;BME280;52532;53.358;-1.488;2022-11-15T14:00:35;97851.54;;;14.13;75.72
65784;BME280;52532;53.358;-1.488;2022-11-15T14:03:50;97850.62;;;16.71;70.62
65784;BME280;52532;53.358;-1.488;2022-11-15T14:06:57;97848.84;;;16.33;69.88
65784;BME280;52532;53.358;-1.488;2022-11-15T14:10:24;97844.99;;;15.22;73.36
65784;BME280;52532;53.358;-1.488;2022-11-15T14:13:30;97832.83;;;16.47;70.08
65784;BME280;52532;53.358;-1.488;2022-11-15T14:16:35;97812.94;;;16.78;69.74
65784;BME280;52532;53.358;-1.488;2022-11-15T14:19:39;97815.34;;;15.02;75.34
65784;BME280;52532;53.358;-1.488;2022-11-15T14:22:51;97846.94;;;14.53;76.04
65784;BME280;52532;53.358;-1.488;2022-11-15T14:25:56;97850.50;;;15.02;74.22
65784;BME280;52532;53.358;-1.488;2022-11-15T14:29:22;97852.30;;;14.61;74.16
65784;BME280;52532;53.358;-1.488;2022-11-15T14:32:27;97850.02;;;15.88;72.63
65784;BME280;52532;53.358;-1.488;2022-11-15T14:35:30;97852.78;;;14.44;74.23
65784;BME280;52532;53.358;-1.488;2022-11-15T14:38:33;97851.39;;;16.58;70.51
65784;BME280;52532;53.358;-1.488;2022-11-15T14:41:37;97846.22;;;15.72;72.17
65784;BME280;52532;53.358;-1.488;2022-11-15T14:44:40;97840.74;;;15.91;69.93
65784;BME280;52532;53.358;-1.488;2022-11-15T14:47:43;97842.66;;;15.10;71.52
65784;BME280;52532;53.358;-1.488;2022-11-15T14:50:46;97845.90;;;15.01;73.21
65784;BME280;52532;53.358;-1.488;2022-11-15T14:53:49;97856.60;;;14.87;74.94
65784;BME280;52532;53.358;-1.488;2022-11-15T14:56:53;97858.55;;;15.33;73.99
65784;BME280;52532;53.358;-1.488;2022-11-15T14:59:56;97865.30;;;13.12;79.04
65784;BME280;52532;53.358;-1.488;2022-11-15T15:02:59;97871.93;;;15.15;74.40
65784;BME280;52532;53.358;-1.488;2022-11-15T15:06:02;97874.19;;;13.93;75.49
65784;BME280;52532;53.358;-1.488;2022-11-15T15:09:05;97884.39;;;12.20;79.47
65784;BME280;52532;53.358;-1.488;2022-11-15T15:12:15;97888.77;;;12.47;82.50
65784;BME280;52532;53.358;-1.488;2022-11-15T15:15:23;97892.72;;;13.26;80.22
65784;BME280;52532;53.358;-1.488;2022-11-15T15:18:26;97896.94;;;12.87;77.51
65784;BME280;52532;53.358;-1.488;2022-11-15T15:21:29;97905.21;;;13.05;76.58
65784;BME280;52532;53.358;-1.488;2022-11-15T15:24:33;97908.22;;;12.74;75.06
65784;BME280;52532;53.358;-1.488;2022-11-15T15:27:36;97910.19;;;11.41;79.60
65784;BME280;52532;53.358;-1.488;2022-11-15T15:30:39;97907.86;;;10.77;77.21
65784;BME280;52532;53.358;-1.488;2022-11-15T15:33:47;97908.88;;;12.96;73.50
65784;BME280;52532;53.358;-1.488;2022-11-15T15:37:08;97906.16;;;11.94;76.23
65784;BME280;52532;53.358;-1.488;2022-11-15T15:40:14;97909.25;;;12.75;72.70
65784;BME280;52532;53.358;-1.488;2022-11-15T15:43:18;97911.55;;;11.02;79.28
65784;BME280;52532;53.358;-1.488;2022-11-15T15:46:21;97921.39;;;12.18;77.00
65784;BME280;52532;53.358;-1.488;2022-11-15T15:49:25;97929.79;;;13.03;71.69
65784;BME280;52532;53.358;-1.488;2022-11-15T15:52:30;97932.18;;;12.81;70.80
65784;BME280;52532;53.358;-1.488;2022-11-15T15:55:35;97941.72;;;13.51;69.25
65784;BME280;52532;53.358;-1.488;2022-11-15T15:58:39;97947.16;;;13.09;68.03
65784;BME280;52532;53.358;-1.488;2022-11-15T16:01:44;97950.71;;;11.56;73.81
65784;BME280;52532;53.358;-1.488;2022-11-15T16:04:53;97954.22;;;11.49;73.00
65784;BME280;52532;53.358;-1.488;2022-11-15T16:07:56;97955.87;;;11.97;70.89
65784;BME280;52532;53.358;-1.488;2022-11-15T16:10:59;97954.02;;;11.19;72.47
65784;BME280;52532;53.358;-1.488;2022-11-15T16:14:02;97960.35;;;12.43;68.89
65784;BME280;52532;53.358;-1.488;2022-11-15T16:17:08;97959.88;;;14.30;64.35
65784;BME280;52532;53.358;-1.488;2022-11-15T16:20:22;97962.12;;;14.11;62.47
65784;BME280;52532;53.358;-1.488;2022-11-15T16:23:26;97960.51;;;14.73;60.38